createdAt,value
2022-08-19T00:01:57.986Z,79.75
2022-08-19T00:04:32.147Z,78.49
2022-08-19T00:07:01.613Z,78.64
2022-08-19T00:09:31.108Z,81.75
2022-08-19T00:12:00.603Z,81.32
2022-08-19T00:14:32.870Z,82.14
2022-08-19T00:17:02.103Z,88.36
2022-08-19T00:19:32.701Z,94.19
2022-08-19T00:22:01.161Z,100.00
2022-08-19T00:24:29.786Z,100.00
2022-08-19T00:27:26.268Z,100.00
2022-08-19T00:29:46.937Z,100.00
2022-08-19T00:32:21.402Z,100.00
2022-08-19T00:34:52.845Z,100.00
2022-08-19T00:37:23.820Z,100.00
2022-08-19T00:39:53.267Z,100.00
2022-08-19T00:42:23.206Z,99.95
2022-08-19T00:44:51.820Z,100.00
2022-08-19T00:47:20.911Z,100.00
2022-08-19T00:49:54.428Z,100.00
2022-08-19T00:52:28.233Z,100.00
2022-08-19T00:54:56.956Z,100.00
2022-08-19T00:57:30.792Z,100.00
2022-08-19T01:00:03.413Z,100.00
2022-08-19T01:02:33.415Z,100.00
2022-08-19T01:05:06.861Z,100.00
2022-08-19T01:07:38.309Z,100.00
2022-08-19T01:10:09.851Z,100.00
2022-08-19T01:12:38.814Z,100.00
2022-08-19T01:15:09.364Z,100.00
2022-08-19T01:17:40.706Z,100.00
2022-08-19T01:20:15.172Z,100.00
2022-08-19T01:22:48.655Z,100.00
2022-08-19T01:25:19.498Z,100.00
2022-08-19T01:27:53.631Z,100.00
2022-08-19T01:30:24.249Z,100.00
2022-08-19T01:32:53.565Z,100.00
2022-08-19T01:35:24.509Z,100.00
2022-08-19T01:37:57.137Z,100.00
2022-08-19T01:40:30.281Z,100.00
2022-08-19T01:42:58.885Z,100.00
2022-08-19T01:48:15.552Z,100.00
2022-08-19T01:50:44.272Z,100.00
2022-08-19T01:53:14.507Z,100.00
2022-08-19T01:55:46.259Z,100.00
2022-08-19T01:58:19.806Z,100.00
2022-08-19T02:00:48.141Z,100.00
2022-08-19T02:03:17.053Z,100.00
2022-08-19T02:05:46.820Z,100.00
2022-08-19T02:08:16.705Z,100.00
2022-08-19T02:10:46.038Z,100.00
2022-08-19T02:13:15.089Z,100.00
2022-08-19T02:15:43.578Z,100.00
2022-08-19T02:18:11.970Z,100.00
2022-08-19T02:20:42.656Z,98.91
2022-08-19T02:23:13.752Z,95.86
2022-08-19T02:25:47.697Z,96.60
2022-08-19T02:28:18.726Z,100.00
2022-08-19T02:30:48.900Z,100.00
2022-08-19T02:33:17.945Z,98.22
2022-08-19T02:35:47.102Z,100.00
2022-08-19T02:38:28.330Z,100.00
2022-08-19T02:41:00.699Z,100.00
2022-08-19T02:43:33.638Z,100.00
2022-08-19T02:46:03.220Z,98.82
2022-08-19T02:48:34.049Z,100.00
2022-08-19T02:51:02.557Z,100.00
2022-08-19T02:53:31.121Z,100.00
2022-08-19T02:56:01.066Z,100.00
2022-08-19T02:58:29.465Z,100.00
2022-08-19T03:00:59.471Z,100.00
2022-08-19T03:03:28.260Z,100.00
2022-08-19T03:06:09.883Z,100.00
2022-08-19T03:08:39.241Z,100.00
2022-08-19T03:11:09.195Z,100.00
2022-08-19T03:13:37.497Z,100.00
2022-08-19T03:16:08.213Z,100.00
2022-08-19T03:18:36.626Z,100.00
2022-08-19T03:21:05.975Z,100.00
2022-08-19T03:23:34.735Z,100.00
2022-08-19T03:26:16.343Z,100.00
2022-08-19T03:28:58.056Z,100.00
2022-08-19T03:31:44.857Z,100.00
2022-08-19T03:34:20.220Z,100.00
2022-08-19T03:36:49.130Z,100.00
2022-08-19T03:39:18.404Z,100.00
2022-08-19T03:41:48.798Z,100.00
2022-08-19T03:44:22.926Z,100.00
2022-08-19T03:46:53.172Z,100.00
2022-08-19T03:49:28.315Z,100.00
2022-08-19T03:51:58.616Z,100.00
2022-08-19T03:54:28.716Z,100.00
2022-08-19T03:56:59.278Z,100.00
2022-08-19T03:59:31.725Z,100.00
2022-08-19T04:02:03.633Z,100.00
2022-08-19T04:04:32.372Z,100.00
2022-08-19T04:07:01.002Z,100.00
2022-08-19T04:09:29.416Z,100.00
2022-08-19T04:11:59.486Z,100.00
2022-08-19T04:14:32.781Z,100.00
2022-08-19T04:17:02.155Z,100.00
2022-08-19T04:19:32.749Z,100.00
2022-08-19T04:22:01.449Z,100.00
2022-08-19T04:24:30.000Z,100.00
2022-08-19T04:26:59.198Z,100.00
2022-08-19T04:29:29.056Z,100.00
2022-08-19T04:31:59.695Z,100.00
2022-08-19T04:34:30.647Z,100.00
2022-08-19T04:37:00.656Z,100.00
2022-08-19T04:39:45.088Z,100.00
2022-08-19T04:42:36.714Z,100.00
2022-08-19T04:45:09.480Z,100.00
2022-08-19T04:47:47.698Z,100.00
2022-08-19T04:50:26.663Z,100.00
2022-08-19T04:52:56.672Z,100.00
2022-08-19T04:55:26.758Z,100.00
2022-08-19T04:57:55.613Z,100.00
2022-08-19T05:00:25.879Z,100.00
2022-08-19T05:02:54.285Z,100.00
2022-08-19T05:05:23.065Z,100.00
2022-08-19T05:07:52.329Z,100.00
2022-08-19T05:10:21.681Z,100.00
2022-08-19T05:12:50.100Z,100.00
2022-08-19T05:15:19.953Z,100.00
2022-08-19T05:18:03.669Z,100.00
2022-08-19T05:20:49.442Z,100.00
2022-08-19T05:23:21.875Z,100.00
2022-08-19T05:25:52.734Z,99.88
2022-08-19T05:28:22.501Z,95.70
2022-08-19T05:30:52.059Z,91.45
2022-08-19T05:33:25.472Z,90.23
2022-08-19T05:35:53.788Z,89.73
2022-08-19T05:38:22.477Z,87.40
2022-08-19T05:40:51.070Z,81.53
2022-08-19T05:43:19.688Z,83.17
2022-08-19T05:45:48.425Z,80.86
2022-08-19T05:48:18.530Z,80.67
2022-08-19T05:50:51.599Z,77.94
2022-08-19T05:53:20.783Z,81.57
2022-08-19T05:55:49.559Z,75.08
2022-08-19T05:58:18.520Z,74.86
2022-08-19T06:00:52.675Z,77.34
2022-08-19T06:03:21.071Z,84.15
2022-08-19T06:05:52.008Z,86.64
2022-08-19T06:08:34.564Z,89.71
2022-08-19T06:11:19.067Z,88.94
2022-08-19T06:13:52.001Z,86.53
2022-08-19T06:16:28.958Z,81.56
2022-08-19T06:18:58.766Z,76.62
2022-08-19T06:21:30.546Z,77.19
2022-08-19T06:24:00.352Z,78.22
2022-08-19T06:26:29.616Z,73.12
2022-08-19T06:28:58.258Z,66.09
2022-08-19T06:31:28.734Z,64.15
2022-08-19T06:33:57.214Z,66.16
2022-08-19T06:36:32.764Z,64.90
2022-08-19T06:39:03.301Z,61.90
2022-08-19T06:41:33.059Z,57.32
2022-08-19T06:44:01.404Z,53.96
2022-08-19T06:46:33.587Z,53.87
2022-08-19T06:49:03.949Z,53.62
2022-08-19T06:54:19.466Z,49.96
2022-08-19T06:56:48.525Z,48.18
2022-08-19T06:59:19.317Z,48.11
2022-08-19T07:01:50.711Z,49.18
2022-08-19T07:04:21.594Z,48.31
2022-08-19T07:06:55.284Z,49.45
2022-08-19T07:09:25.359Z,47.14
2022-08-19T07:11:55.530Z,46.32
2022-08-19T07:14:27.806Z,46.48
2022-08-19T07:16:58.671Z,44.56
2022-08-19T07:19:29.002Z,43.11
2022-08-19T07:21:57.740Z,43.96
2022-08-19T07:24:33.499Z,41.33
2022-08-19T07:27:04.334Z,42.28
2022-08-19T07:29:42.568Z,41.81
2022-08-19T07:32:13.506Z,41.27
2022-08-19T07:34:42.052Z,41.92
2022-08-19T07:37:11.425Z,41.39
2022-08-19T07:39:41.725Z,40.70
2022-08-19T07:42:13.613Z,37.92
2022-08-19T07:44:43.222Z,38.26
2022-08-19T07:47:48.758Z,35.96
2022-08-19T07:50:09.755Z,34.57
2022-08-19T07:52:40.567Z,34.83
2022-08-19T07:55:40.178Z,33.58
2022-08-19T07:58:01.169Z,34.99
2022-08-19T08:00:31.539Z,35.62
2022-08-19T08:02:59.858Z,37.21
2022-08-19T08:05:45.626Z,35.50
2022-08-19T08:08:32.131Z,35.78
2022-08-19T08:11:02.185Z,35.89
2022-08-19T08:13:30.865Z,35.73
2022-08-19T08:16:00.090Z,35.30
2022-08-19T08:18:30.476Z,35.02
2022-08-19T08:21:00.406Z,36.33
2022-08-19T08:23:30.356Z,35.61
2022-08-19T08:26:01.422Z,34.35
2022-08-19T08:28:30.811Z,33.79
2022-08-19T08:31:00.409Z,33.06
2022-08-19T08:33:33.737Z,32.43
2022-08-19T08:36:04.087Z,32.18
2022-08-19T08:38:39.019Z,32.41
2022-08-19T08:41:20.812Z,31.51
2022-08-19T08:43:52.210Z,31.74
2022-08-19T08:46:32.014Z,33.50
2022-08-19T08:49:08.519Z,33.42
2022-08-19T08:51:44.634Z,33.59
2022-08-19T08:54:20.091Z,32.00
2022-08-19T08:56:51.865Z,33.68
2022-08-19T08:59:25.672Z,33.64
2022-08-19T09:01:54.479Z,31.63
2022-08-19T09:04:23.908Z,30.46
2022-08-19T09:06:57.969Z,29.58
2022-08-19T09:09:33.646Z,28.39
2022-08-19T09:12:13.267Z,28.38
2022-08-19T09:14:51.821Z,29.13
2022-08-19T09:17:31.919Z,31.23
2022-08-19T09:20:09.046Z,29.59
2022-08-19T09:22:38.447Z,31.02
2022-08-19T09:25:08.949Z,30.35
2022-08-19T09:27:42.742Z,29.20
2022-08-19T09:30:15.933Z,29.24
2022-08-19T09:32:45.700Z,28.10
2022-08-19T09:35:16.684Z,26.66
2022-08-19T09:37:45.252Z,26.77
2022-08-19T09:40:15.595Z,27.85
2022-08-19T09:42:49.995Z,28.11
2022-08-19T09:45:21.592Z,28.28
2022-08-19T09:47:50.561Z,30.69
2022-08-19T09:50:19.847Z,26.96
2022-08-19T09:52:55.040Z,26.31
2022-08-19T09:55:31.228Z,25.92
2022-08-19T09:58:03.426Z,26.64
2022-08-19T10:00:32.861Z,26.65
2022-08-19T10:03:01.409Z,25.29
2022-08-19T10:05:50.318Z,26.82
2022-08-19T10:08:20.942Z,26.97
2022-08-19T10:10:49.870Z,23.40
2022-08-19T10:13:27.169Z,20.94
2022-08-19T10:15:57.387Z,22.32
2022-08-19T10:18:27.126Z,23.10
2022-08-19T10:21:08.800Z,22.01
2022-08-19T10:23:38.571Z,22.30
2022-08-19T10:26:07.966Z,22.09
2022-08-19T10:28:39.422Z,20.20
2022-08-19T10:31:08.868Z,18.58
2022-08-19T10:33:52.998Z,17.84
2022-08-19T10:36:24.830Z,20.50
2022-08-19T10:38:57.002Z,19.90
2022-08-19T10:41:29.976Z,20.61
2022-08-19T10:44:04.501Z,20.86
2022-08-19T10:46:34.176Z,20.03
2022-08-19T10:49:03.716Z,21.30
2022-08-19T10:51:49.903Z,19.84
2022-08-19T10:54:31.178Z,20.16
2022-08-19T10:56:59.544Z,21.27
2022-08-19T10:59:35.721Z,22.05
2022-08-19T11:02:08.441Z,20.65
2022-08-19T11:04:36.903Z,17.73
2022-08-19T11:07:06.360Z,16.95
2022-08-19T11:09:40.827Z,18.05
2022-08-19T11:12:10.665Z,17.64
2022-08-19T11:14:41.493Z,18.09
2022-08-19T11:17:09.978Z,19.18
2022-08-19T11:19:38.376Z,18.42
2022-08-19T11:22:09.564Z,18.55
2022-08-19T11:24:38.952Z,17.32
2022-08-19T11:27:11.269Z,17.45
2022-08-19T11:29:42.318Z,17.58
2022-08-19T11:32:14.027Z,18.49
2022-08-19T11:34:42.521Z,17.98
2022-08-19T11:37:10.903Z,18.28
2022-08-19T11:39:39.497Z,18.66
2022-08-19T11:42:29.277Z,18.85
2022-08-19T11:44:59.126Z,18.82
2022-08-19T11:47:27.710Z,18.21
2022-08-19T11:49:56.327Z,18.99
2022-08-19T11:52:24.893Z,18.34
2022-08-19T11:54:53.330Z,17.25
2022-08-19T11:57:21.626Z,17.76
2022-08-19T11:59:54.036Z,19.30
2022-08-19T12:02:24.421Z,17.66
2022-08-19T12:04:52.748Z,17.73
2022-08-19T12:07:21.258Z,18.88
2022-08-19T12:09:49.700Z,17.81
2022-08-19T12:12:18.257Z,18.47
2022-08-19T12:14:47.652Z,17.91
2022-08-19T12:17:16.398Z,17.65
2022-08-19T12:19:46.237Z,17.17
2022-08-19T12:22:14.553Z,17.42
2022-08-19T12:24:43.006Z,18.24
2022-08-19T12:27:12.944Z,17.99
2022-08-19T12:29:42.581Z,19.61
2022-08-19T12:32:12.283Z,18.63
2022-08-19T12:34:41.623Z,19.68
2022-08-19T12:37:12.104Z,18.98
2022-08-19T12:39:43.655Z,17.87
2022-08-19T12:42:13.477Z,19.38
2022-08-19T12:44:43.611Z,18.67
2022-08-19T12:47:14.542Z,19.32
2022-08-19T12:49:52.386Z,20.69
2022-08-19T12:52:26.939Z,20.96
2022-08-19T12:54:57.221Z,19.30
2022-08-19T12:57:32.197Z,19.10
2022-08-19T13:00:04.759Z,19.46
2022-08-19T13:02:38.480Z,19.92
2022-08-19T13:05:11.152Z,20.66
2022-08-19T13:07:42.549Z,21.23
2022-08-19T13:10:13.552Z,20.18
2022-08-19T13:12:43.120Z,19.60
2022-08-19T13:15:12.776Z,20.50
2022-08-19T13:17:43.966Z,19.20
2022-08-19T13:20:13.775Z,18.97
2022-08-19T13:22:43.749Z,19.82
2022-08-19T13:25:13.133Z,19.97
2022-08-19T13:27:42.074Z,20.40
2022-08-19T13:30:31.691Z,19.72
2022-08-19T13:33:16.623Z,19.78
2022-08-19T13:35:48.828Z,19.92
2022-08-19T13:38:21.715Z,20.72
2022-08-19T13:40:52.530Z,22.29
2022-08-19T13:43:23.399Z,22.77
2022-08-19T13:45:53.819Z,20.44
2022-08-19T13:48:22.753Z,20.82
2022-08-19T13:50:51.753Z,20.84
2022-08-19T13:53:21.730Z,21.73
2022-08-19T13:55:51.560Z,19.96
2022-08-19T13:58:19.955Z,19.85
2022-08-19T14:00:49.397Z,21.10
2022-08-19T14:03:18.055Z,21.24
2022-08-19T14:05:47.809Z,21.39
2022-08-19T14:08:16.303Z,22.43
2022-08-19T14:10:46.412Z,21.64
2022-08-19T14:13:18.398Z,22.01
2022-08-19T14:15:48.342Z,22.07
2022-08-19T14:18:17.327Z,22.28
2022-08-19T14:20:46.215Z,21.98
2022-08-19T14:23:14.767Z,22.36
2022-08-19T14:25:43.446Z,22.43
2022-08-19T14:28:13.281Z,23.54
2022-08-19T14:30:41.693Z,22.19
2022-08-19T14:33:10.628Z,23.48
2022-08-19T14:35:39.888Z,22.73
2022-08-19T14:38:17.770Z,22.85
2022-08-19T14:40:53.040Z,23.08
2022-08-19T14:43:24.556Z,23.20
2022-08-19T14:45:52.911Z,23.88
2022-08-19T14:48:22.617Z,23.32
2022-08-19T14:50:57.501Z,23.78
2022-08-19T14:53:26.824Z,24.17
2022-08-19T14:55:55.177Z,23.79
2022-08-19T14:58:28.481Z,23.88
2022-08-19T15:01:00.342Z,24.13
2022-08-19T15:03:29.114Z,24.43
2022-08-19T15:05:58.868Z,24.11
2022-08-19T15:08:27.564Z,24.57
2022-08-19T15:10:58.364Z,24.34
2022-08-19T15:13:30.511Z,25.00
2022-08-19T15:15:59.334Z,24.54
2022-08-19T15:18:27.766Z,24.63
2022-08-19T15:20:57.892Z,24.90
2022-08-19T15:23:26.242Z,24.85
2022-08-19T15:25:56.648Z,25.43
2022-08-19T15:28:25.725Z,25.76
2022-08-19T15:30:55.757Z,25.37
2022-08-19T15:33:24.013Z,25.75
2022-08-19T15:35:53.192Z,25.92
2022-08-19T15:38:24.599Z,26.09
2022-08-19T15:40:53.396Z,26.29
2022-08-19T15:43:23.455Z,26.24
2022-08-19T15:45:51.776Z,26.63
2022-08-19T15:48:21.538Z,26.26
2022-08-19T15:50:49.857Z,27.00
2022-08-19T15:53:18.179Z,27.53
2022-08-19T15:55:48.647Z,27.09
2022-08-19T15:58:34.947Z,26.90
2022-08-19T16:01:23.820Z,26.82
2022-08-19T16:04:14.931Z,27.27
2022-08-19T16:06:46.579Z,27.89
2022-08-19T16:09:15.688Z,28.11
2022-08-19T16:11:46.394Z,28.40
2022-08-19T16:14:15.142Z,28.13
2022-08-19T16:16:46.966Z,28.22
2022-08-19T16:19:20.026Z,28.69
2022-08-19T16:21:51.001Z,29.06
2022-08-19T16:24:21.701Z,29.68
2022-08-19T16:26:50.240Z,29.59
2022-08-19T16:29:33.304Z,30.75
2022-08-19T16:32:03.538Z,31.13
2022-08-19T16:34:33.623Z,33.15
2022-08-19T16:37:02.257Z,34.11
2022-08-19T16:39:30.736Z,34.77
2022-08-19T16:41:59.155Z,36.25
2022-08-19T16:44:29.749Z,37.04
2022-08-19T16:46:59.658Z,37.39
2022-08-19T16:49:54.076Z,37.30
2022-08-19T16:52:19.076Z,36.86
2022-08-19T16:54:47.424Z,39.72
2022-08-19T16:57:16.236Z,39.49
2022-08-19T16:59:48.785Z,39.74
2022-08-19T17:02:18.711Z,41.27
2022-08-19T17:04:58.402Z,43.85
2022-08-19T17:07:33.121Z,44.58
2022-08-19T17:10:03.186Z,43.59
2022-08-19T17:12:32.664Z,45.75
2022-08-19T17:15:02.715Z,46.63
2022-08-19T17:17:32.075Z,46.38
2022-08-19T17:20:02.620Z,49.51
2022-08-19T17:22:32.918Z,48.77
2022-08-19T17:25:04.540Z,48.92
2022-08-19T17:27:32.900Z,49.75
2022-08-19T17:30:03.657Z,51.15
2022-08-19T17:32:35.149Z,48.29
2022-08-19T17:35:04.927Z,49.10
2022-08-19T17:37:35.124Z,47.04
2022-08-19T17:40:04.091Z,46.88
2022-08-19T17:42:32.496Z,50.95
2022-08-19T17:45:00.885Z,49.28
2022-08-19T17:47:29.913Z,49.90
2022-08-19T17:49:58.657Z,48.90
2022-08-19T17:52:27.111Z,50.50
2022-08-19T17:54:56.994Z,50.59
2022-08-19T17:57:25.377Z,50.51
2022-08-19T17:59:54.065Z,52.37
2022-08-19T18:02:22.907Z,49.69
2022-08-19T18:04:51.464Z,51.51
2022-08-19T18:07:21.700Z,50.33
2022-08-19T18:09:52.898Z,50.26
2022-08-19T18:12:26.665Z,53.97
2022-08-19T18:14:55.036Z,53.26
2022-08-19T18:17:24.556Z,53.40
2022-08-19T18:19:53.183Z,52.65
2022-08-19T18:22:28.082Z,52.71
2022-08-19T18:24:57.714Z,52.69
2022-08-19T18:27:28.340Z,55.75
2022-08-19T18:29:59.674Z,54.50
2022-08-19T18:32:31.941Z,55.32
2022-08-19T18:35:01.740Z,57.62
2022-08-19T18:37:30.648Z,56.53
2022-08-19T18:40:16.730Z,58.28
2022-08-19T18:43:05.026Z,60.49
2022-08-19T18:45:51.028Z,66.66
2022-08-19T18:48:35.772Z,69.54
2022-08-19T18:51:04.197Z,69.12
2022-08-19T18:53:34.847Z,69.87
2022-08-19T18:56:03.299Z,68.79
2022-08-19T18:58:34.981Z,69.29
2022-08-19T19:01:11.009Z,68.77
2022-08-19T19:03:41.889Z,69.42
2022-08-19T19:06:10.473Z,71.09
2022-08-19T19:08:41.079Z,73.94
2022-08-19T19:11:10.072Z,74.63
2022-08-19T19:13:41.193Z,73.68
2022-08-19T19:16:11.668Z,74.60
2022-08-19T19:18:40.514Z,71.65
2022-08-19T19:21:09.948Z,70.75
2022-08-19T19:23:40.894Z,70.59
2022-08-19T19:26:10.656Z,71.21
2022-08-19T19:28:43.862Z,72.00
2022-08-19T19:31:14.300Z,71.97
2022-08-19T19:33:43.444Z,76.08
2022-08-19T19:36:12.780Z,76.27
2022-08-19T19:38:48.045Z,76.61
2022-08-19T19:41:19.424Z,76.54
2022-08-19T19:44:04.555Z,76.19
2022-08-19T19:46:38.479Z,74.52
2022-08-19T19:49:07.868Z,70.81
2022-08-19T19:51:37.805Z,71.03
2022-08-19T19:54:06.892Z,68.41
2022-08-19T19:56:35.709Z,68.29
2022-08-19T19:59:05.513Z,68.79
2022-08-19T20:01:34.137Z,67.53
2022-08-19T20:04:02.947Z,68.38
2022-08-19T20:06:31.509Z,68.88
2022-08-19T20:09:11.107Z,69.42
2022-08-19T20:11:42.693Z,70.90
2022-08-19T20:14:14.598Z,73.22
2022-08-19T20:16:46.072Z,76.60
2022-08-19T20:19:17.140Z,78.96
2022-08-19T20:21:50.794Z,79.64
2022-08-19T20:24:23.740Z,74.06
2022-08-19T20:26:53.613Z,72.84
2022-08-19T20:29:38.969Z,75.23
2022-08-19T20:32:10.579Z,76.48
2022-08-19T20:34:39.559Z,76.26
2022-08-19T20:37:09.687Z,74.90
2022-08-19T20:39:38.442Z,74.89
2022-08-19T20:42:07.243Z,77.30
2022-08-19T20:44:37.989Z,77.70
2022-08-19T20:47:06.637Z,79.40
2022-08-19T20:49:35.399Z,79.20
2022-08-19T20:52:05.357Z,78.91
2022-08-19T20:54:34.545Z,78.60
2022-08-19T20:57:03.955Z,78.90
2022-08-19T20:59:32.325Z,78.71
2022-08-19T21:02:02.113Z,82.08
2022-08-19T21:04:30.618Z,83.24
2022-08-19T21:06:58.984Z,82.62
2022-08-19T21:09:27.337Z,81.52
2022-08-19T21:11:55.745Z,78.33
2022-08-19T21:14:24.101Z,79.38
2022-08-19T21:16:52.531Z,79.82
2022-08-19T21:19:24.103Z,80.34
2022-08-19T21:21:53.109Z,79.72
2022-08-19T21:24:21.756Z,79.75
2022-08-19T21:26:55.999Z,78.42
2022-08-19T21:29:24.778Z,80.41
2022-08-19T21:31:53.270Z,80.49
2022-08-19T21:34:23.095Z,82.91
2022-08-19T21:36:51.503Z,84.16
2022-08-19T21:39:19.899Z,83.02
2022-08-19T21:41:48.298Z,83.30
2022-08-19T21:44:16.689Z,82.89
2022-08-19T21:46:45.018Z,84.26
2022-08-19T21:49:19.795Z,83.00
2022-08-19T21:51:49.932Z,81.07
2022-08-19T21:54:18.365Z,83.45
2022-08-19T21:56:47.207Z,84.64
2022-08-19T21:59:15.887Z,86.53
2022-08-19T22:01:48.839Z,81.58
2022-08-19T22:04:18.961Z,81.71
2022-08-19T22:06:47.390Z,86.72
2022-08-19T22:09:17.222Z,86.98
2022-08-19T22:11:45.515Z,87.78
2022-08-19T22:14:13.949Z,91.07
2022-08-19T22:16:42.231Z,93.80
2022-08-19T22:19:10.555Z,93.09
2022-08-19T22:21:40.855Z,90.86
2022-08-19T22:24:10.699Z,89.67
2022-08-19T22:26:40.468Z,91.47
2022-08-19T22:29:10.531Z,89.38
2022-08-19T22:31:44.201Z,91.81
2022-08-19T22:34:15.086Z,96.00
2022-08-19T22:36:43.399Z,96.13
2022-08-19T22:39:11.854Z,95.02
2022-08-19T22:41:41.912Z,94.66
2022-08-19T22:44:11.485Z,93.89
2022-08-19T22:46:40.091Z,96.00
2022-08-19T22:49:08.519Z,93.55
2022-08-19T22:51:54.312Z,94.95
2022-08-19T22:54:22.657Z,92.26
2022-08-19T22:56:52.877Z,93.32
2022-08-19T22:59:21.393Z,91.90
2022-08-19T23:01:49.786Z,93.81
2022-08-19T23:04:18.134Z,94.85
2022-08-19T23:06:46.596Z,95.72
2022-08-19T23:09:16.619Z,93.61
2022-08-19T23:11:46.400Z,95.86
2022-08-19T23:14:17.767Z,97.72
2022-08-19T23:16:51.049Z,96.57
2022-08-19T23:19:21.622Z,97.37
2022-08-19T23:21:50.712Z,96.10
2022-08-19T23:24:19.121Z,97.29
2022-08-19T23:27:01.306Z,98.35
2022-08-19T23:29:48.681Z,95.93
2022-08-19T23:32:18.074Z,96.31
2022-08-19T23:34:46.621Z,100.00
2022-08-19T23:37:16.185Z,97.86
2022-08-19T23:39:45.348Z,98.20
2022-08-19T23:42:14.439Z,97.86
2022-08-19T23:44:51.987Z,98.33
2022-08-19T23:47:22.237Z,98.65
2022-08-19T23:49:51.262Z,96.22
2022-08-19T23:52:19.873Z,98.39
2022-08-19T23:54:48.300Z,98.45
2022-08-19T23:57:16.727Z,98.77
2022-08-19T23:59:46.543Z,100.00
